sensor_id;sensor_type;location;lat;lon;timestamp;pressure;altitude;pressure_sealevel;temperature;humidity
2268;BME280;11052;43.338;25.502;2023-04-30T00:02:20;100362.22;;;10.78;100.00
2268;BME280;11052;43.338;25.502;2023-04-30T00:04:49;100358.13;;;10.69;100.00
2268;BME280;11052;43.338;25.502;2023-04-30T00:07:16;100371.41;;;10.59;100.00
2268;BME280;11052;43.338;25.502;2023-04-30T00:09:43;100365.56;;;10.52;100.00
2268;BME280;11052;43.338;25.502;2023-04-30T00:12:10;100361.56;;;10.40;100.00
2268;BME280;11052;43.338;25.502;2023-04-30T00:14:37;100354.72;;;10.39;100.00
2268;BME280;11052;43.338;25.502;2023-04-30T00:17:04;100355.66;;;10.37;100.00
2268;BME280;11052;43.338;25.502;2023-04-30T00:19:31;100361.81;;;10.33;100.00
2268;BME280;11052;43.338;25.502;2023-04-30T00:22:00;100354.97;;;10.30;100.00
2268;BME280;11052;43.338;25.502;2023-04-30T00:24:27;100350.72;;;10.28;100.00
2268;BME280;11052;43.338;25.502;2023-04-30T00:26:54;100350.84;;;10.23;100.00
2268;BME280;11052;43.338;25.502;2023-04-30T00:29:21;100351.03;;;10.15;100.00
2268;BME280;11052;43.338;25.502;2023-04-30T00:31:48;100353.59;;;10.17;100.00
2268;BME280;11052;43.338;25.502;2023-04-30T00:34:15;100347.56;;;10.16;100.00
2268;BME280;11052;43.338;25.502;2023-04-30T00:36:43;100352.97;;;10.07;100.00
2268;BME280;11052;43.338;25.502;2023-04-30T00:39:11;100353.16;;;10.01;100.00
2268;BME280;11052;43.338;25.502;2023-04-30T00:41:38;100355.91;;;9.95;100.00
2268;BME280;11052;43.338;25.502;2023-04-30T00:44:05;100354.19;;;9.94;100.00
2268;BME280;11052;43.338;25.502;2023-04-30T00:46:33;100358.72;;;9.86;100.00
2268;BME280;11052;43.338;25.502;2023-04-30T00:49:00;100359.78;;;9.79;100.00
2268;BME280;11052;43.338;25.502;2023-04-30T00:51:30;100355.69;;;9.70;100.00
2268;BME280;11052;43.338;25.502;2023-04-30T00:53:59;100350.63;;;9.66;100.00
2268;BME280;11052;43.338;25.502;2023-04-30T00:56:28;100355.06;;;9.61;100.00
2268;BME280;11052;43.338;25.502;2023-04-30T00:58:56;100347.47;;;9.54;100.00
2268;BME280;11052;43.338;25.502;2023-04-30T01:01:23;100343.34;;;9.47;100.00
2268;BME280;11052;43.338;25.502;2023-04-30T01:03:51;100339.13;;;9.43;100.00
2268;BME280;11052;43.338;25.502;2023-04-30T01:06:18;100332.41;;;9.36;100.00
2268;BME280;11052;43.338;25.502;2023-04-30T01:08:45;100342.94;;;9.29;100.00
2268;BME280;11052;43.338;25.502;2023-04-30T01:11:21;100341.47;;;9.18;100.00
2268;BME280;11052;43.338;25.502;2023-04-30T01:14:06;100344.09;;;9.17;100.00
2268;BME280;11052;43.338;25.502;2023-04-30T01:16:39;100339.03;;;9.12;100.00
2268;BME280;11052;43.338;25.502;2023-04-30T01:19:16;100344.34;;;9.06;100.00
2268;BME280;11052;43.338;25.502;2023-04-30T01:21:46;100340.16;;;9.01;100.00
2268;BME280;11052;43.338;25.502;2023-04-30T01:24:27;100335.13;;;8.95;100.00
2268;BME280;11052;43.338;25.502;2023-04-30T01:27:11;100338.88;;;8.81;100.00
2268;BME280;11052;43.338;25.502;2023-04-30T01:29:42;100334.59;;;8.80;100.00
2268;BME280;11052;43.338;25.502;2023-04-30T01:32:09;100333.06;;;8.72;100.00
2268;BME280;11052;43.338;25.502;2023-04-30T01:34:36;100337.38;;;8.71;100.00
2268;BME280;11052;43.338;25.502;2023-04-30T01:37:13;100330.56;;;8.67;100.00
2268;BME280;11052;43.338;25.502;2023-04-30T01:39:55;100333.31;;;8.61;100.00
2268;BME280;11052;43.338;25.502;2023-04-30T01:42:28;100330.91;;;8.53;100.00
2268;BME280;11052;43.338;25.502;2023-04-30T01:45:10;100339.59;;;8.49;100.00
2268;BME280;11052;43.338;25.502;2023-04-30T01:47:43;100341.38;;;8.46;100.00
2268;BME280;11052;43.338;25.502;2023-04-30T01:50:18;100339.06;;;8.32;100.00
2268;BME280;11052;43.338;25.502;2023-04-30T01:52:51;100334.94;;;8.22;100.00
2268;BME280;11052;43.338;25.502;2023-04-30T01:55:23;100336.00;;;8.12;100.00
2268;BME280;11052;43.338;25.502;2023-04-30T01:57:56;100338.69;;;8.07;100.00
2268;BME280;11052;43.338;25.502;2023-04-30T02:00:26;100337.03;;;8.03;100.00
2268;BME280;11052;43.338;25.502;2023-04-30T02:02:53;100331.09;;;7.98;100.00
2268;BME280;11052;43.338;25.502;2023-04-30T02:05:20;100333.75;;;7.95;100.00
2268;BME280;11052;43.338;25.502;2023-04-30T02:07:48;100336.44;;;7.89;100.00
2268;BME280;11052;43.338;25.502;2023-04-30T02:10:17;100336.47;;;7.87;100.00
2268;BME280;11052;43.338;25.502;2023-04-30T02:12:44;100334.81;;;7.83;100.00
2268;BME280;11052;43.338;25.502;2023-04-30T02:15:12;100342.69;;;7.79;100.00
2268;BME280;11052;43.338;25.502;2023-04-30T02:17:41;100339.31;;;7.75;100.00
2268;BME280;11052;43.338;25.502;2023-04-30T02:20:08;100341.09;;;7.72;100.00
2268;BME280;11052;43.338;25.502;2023-04-30T02:22:36;100335.13;;;7.68;100.00
2268;BME280;11052;43.338;25.502;2023-04-30T02:25:04;100340.38;;;7.64;100.00
2268;BME280;11052;43.338;25.502;2023-04-30T02:27:31;100336.06;;;7.64;100.00
2268;BME280;11052;43.338;25.502;2023-04-30T02:29:59;100346.47;;;7.58;100.00
2268;BME280;11052;43.338;25.502;2023-04-30T02:32:27;100334.59;;;7.49;100.00
2268;BME280;11052;43.338;25.502;2023-04-30T02:34:55;100334.66;;;7.45;100.00
2268;BME280;11052;43.338;25.502;2023-04-30T02:37:23;100333.81;;;7.44;100.00
2268;BME280;11052;43.338;25.502;2023-04-30T02:39:52;100331.28;;;7.41;100.00
2268;BME280;11052;43.338;25.502;2023-04-30T02:42:19;100333.00;;;7.41;100.00
2268;BME280;11052;43.338;25.502;2023-04-30T02:44:46;100337.41;;;7.36;100.00
2268;BME280;11052;43.338;25.502;2023-04-30T02:47:13;100331.47;;;7.29;100.00
2268;BME280;11052;43.338;25.502;2023-04-30T02:49:40;100338.41;;;7.27;100.00
2268;BME280;11052;43.338;25.502;2023-04-30T02:52:09;100344.53;;;7.20;100.00
2268;BME280;11052;43.338;25.502;2023-04-30T02:54:36;100338.59;;;7.15;100.00
2268;BME280;11052;43.338;25.502;2023-04-30T02:57:03;100338.72;;;7.06;100.00
2268;BME280;11052;43.338;25.502;2023-04-30T02:59:31;100343.00;;;7.07;100.00
2268;BME280;11052;43.338;25.502;2023-04-30T03:01:58;100347.31;;;7.06;100.00
2268;BME280;11052;43.338;25.502;2023-04-30T03:04:25;100345.66;;;7.01;100.00
2268;BME280;11052;43.338;25.502;2023-04-30T03:06:52;100343.13;;;6.99;100.00
2268;BME280;11052;43.338;25.502;2023-04-30T03:09:21;100344.88;;;6.97;100.00
2268;BME280;11052;43.338;25.502;2023-04-30T03:11:48;100355.09;;;7.02;100.00
2268;BME280;11052;43.338;25.502;2023-04-30T03:14:15;100354.41;;;6.92;100.00
2268;BME280;11052;43.338;25.502;2023-04-30T03:16:42;100358.81;;;6.85;100.00
2268;BME280;11052;43.338;25.502;2023-04-30T03:19:10;100352.00;;;6.80;100.00
2268;BME280;11052;43.338;25.502;2023-04-30T03:21:37;100356.31;;;6.79;100.00
2268;BME280;11052;43.338;25.502;2023-04-30T03:24:04;100358.84;;;6.82;100.00
2268;BME280;11052;43.338;25.502;2023-04-30T03:26:33;100358.00;;;6.80;100.00
2268;BME280;11052;43.338;25.502;2023-04-30T03:29:00;100354.59;;;6.80;100.00
2268;BME280;11052;43.338;25.502;2023-04-30T03:31:27;100368.31;;;6.80;100.00
2268;BME280;11052;43.338;25.502;2023-04-30T03:33:54;100370.94;;;6.77;100.00
2268;BME280;11052;43.338;25.502;2023-04-30T03:36:21;100371.13;;;6.64;100.00
2268;BME280;11052;43.338;25.502;2023-04-30T03:38:48;100371.13;;;6.62;100.00
2268;BME280;11052;43.338;25.502;2023-04-30T03:41:16;100378.84;;;6.64;100.00
2268;BME280;11052;43.338;25.502;2023-04-30T03:43:44;100380.63;;;6.58;100.00
2268;BME280;11052;43.338;25.502;2023-04-30T03:46:11;100379.66;;;6.67;100.00
2268;BME280;11052;43.338;25.502;2023-04-30T03:48:38;100383.09;;;6.68;100.00
2268;BME280;11052;43.338;25.502;2023-04-30T03:51:05;100384.81;;;6.67;100.00
2268;BME280;11052;43.338;25.502;2023-04-30T03:53:34;100390.75;;;6.72;100.00
2268;BME280;11052;43.338;25.502;2023-04-30T03:56:01;100387.22;;;6.81;100.00
2268;BME280;11052;43.338;25.502;2023-04-30T03:58:29;100387.22;;;6.79;100.00
2268;BME280;11052;43.338;25.502;2023-04-30T04:00:58;100392.34;;;6.82;100.00
2268;BME280;11052;43.338;25.502;2023-04-30T04:03:26;100387.22;;;6.81;100.00
2268;BME280;11052;43.338;25.502;2023-04-30T04:05:53;100395.06;;;6.70;100.00
2268;BME280;11052;43.338;25.502;2023-04-30T04:08:20;100391.81;;;6.56;100.00
2268;BME280;11052;43.338;25.502;2023-04-30T04:10:47;100398.59;;;6.63;100.00
2268;BME280;11052;43.338;25.502;2023-04-30T04:13:15;100399.53;;;6.56;100.00
2268;BME280;11052;43.338;25.502;2023-04-30T04:15:42;100400.22;;;6.70;100.00
2268;BME280;11052;43.338;25.502;2023-04-30T04:18:11;100403.53;;;6.80;100.00
2268;BME280;11052;43.338;25.502;2023-04-30T04:20:38;100400.69;;;6.98;100.00
2268;BME280;11052;43.338;25.502;2023-04-30T04:23:05;100399.69;;;7.08;100.00
2268;BME280;11052;43.338;25.502;2023-04-30T04:25:32;100399.59;;;7.14;100.00
2268;BME280;11052;43.338;25.502;2023-04-30T04:28:00;100404.66;;;7.22;100.00
2268;BME280;11052;43.338;25.502;2023-04-30T04:30:27;100408.81;;;7.31;100.00
2268;BME280;11052;43.338;25.502;2023-04-30T04:32:54;100408.78;;;7.32;100.00
2268;BME280;11052;43.338;25.502;2023-04-30T04:35:23;100406.69;;;7.57;100.00
2268;BME280;11052;43.338;25.502;2023-04-30T04:37:51;100414.78;;;7.85;100.00
2268;BME280;11052;43.338;25.502;2023-04-30T04:40:18;100411.13;;;7.98;100.00
2268;BME280;11052;43.338;25.502;2023-04-30T04:42:48;100406.72;;;8.03;100.00
2268;BME280;11052;43.338;25.502;2023-04-30T04:45:16;100409.16;;;8.12;100.00
2268;BME280;11052;43.338;25.502;2023-04-30T04:47:44;100408.56;;;8.46;100.00
2268;BME280;11052;43.338;25.502;2023-04-30T04:50:11;100406.53;;;9.00;100.00
2268;BME280;11052;43.338;25.502;2023-04-30T04:52:40;100411.59;;;9.77;100.00
2268;BME280;11052;43.338;25.502;2023-04-30T04:55:08;100405.91;;;10.31;100.00
2268;BME280;11052;43.338;25.502;2023-04-30T04:57:36;100411.41;;;10.50;100.00
2268;BME280;11052;43.338;25.502;2023-04-30T05:00:04;100410.72;;;10.74;100.00
2268;BME280;11052;43.338;25.502;2023-04-30T05:02:32;100415.19;;;10.99;100.00
2268;BME280;11052;43.338;25.502;2023-04-30T05:05:00;100411.31;;;11.12;100.00
2268;BME280;11052;43.338;25.502;2023-04-30T05:07:27;100410.28;;;11.44;100.00
2268;BME280;11052;43.338;25.502;2023-04-30T05:09:56;100413.16;;;11.63;100.00
2268;BME280;11052;43.338;25.502;2023-04-30T05:12:23;100404.06;;;12.02;100.00
2268;BME280;11052;43.338;25.502;2023-04-30T05:14:50;100404.75;;;12.56;100.00
2268;BME280;11052;43.338;25.502;2023-04-30T05:17:17;100406.09;;;13.34;100.00
2268;BME280;11052;43.338;25.502;2023-04-30T05:19:44;100404.06;;;14.03;100.00
2268;BME280;11052;43.338;25.502;2023-04-30T05:22:13;100411.13;;;14.01;100.00
2268;BME280;11052;43.338;25.502;2023-04-30T05:24:40;100413.97;;;14.36;100.00
2268;BME280;11052;43.338;25.502;2023-04-30T05:27:09;100415.47;;;14.62;100.00
2268;BME280;11052;43.338;25.502;2023-04-30T05:29:36;100416.72;;;14.91;100.00
2268;BME280;11052;43.338;25.502;2023-04-30T05:32:03;100411.84;;;15.02;100.00
2268;BME280;11052;43.338;25.502;2023-04-30T05:34:32;100409.94;;;14.87;100.00
2268;BME280;11052;43.338;25.502;2023-04-30T05:36:59;100408.31;;;15.03;100.00
2268;BME280;11052;43.338;25.502;2023-04-30T05:39:26;100404.28;;;15.33;100.00
2268;BME280;11052;43.338;25.502;2023-04-30T05:41:54;100399.56;;;15.23;100.00
2268;BME280;11052;43.338;25.502;2023-04-30T05:44:22;100402.50;;;15.34;100.00
2268;BME280;11052;43.338;25.502;2023-04-30T05:46:49;100397.97;;;15.73;100.00
2268;BME280;11052;43.338;25.502;2023-04-30T05:49:16;100399.38;;;15.45;100.00
2268;BME280;11052;43.338;25.502;2023-04-30T05:51:43;100397.97;;;15.73;100.00
2268;BME280;11052;43.338;25.502;2023-04-30T05:54:10;100397.31;;;16.20;100.00
2268;BME280;11052;43.338;25.502;2023-04-30T05:56:38;100393.44;;;16.60;100.00
2268;BME280;11052;43.338;25.502;2023-04-30T05:59:05;100398.50;;;16.96;100.00
2268;BME280;11052;43.338;25.502;2023-04-30T06:01:33;100397.25;;;17.49;100.00
2268;BME280;11052;43.338;25.502;2023-04-30T06:04:00;100404.19;;;17.66;100.00
2268;BME280;11052;43.338;25.502;2023-04-30T06:06:29;100402.31;;;17.52;100.00
2268;BME280;11052;43.338;25.502;2023-04-30T06:08:56;100404.09;;;17.97;100.00
2268;BME280;11052;43.338;25.502;2023-04-30T06:11:23;100408.59;;;18.24;100.00
2268;BME280;11052;43.338;25.502;2023-04-30T06:13:51;100413.88;;;18.38;100.00
2268;BME280;11052;43.338;25.502;2023-04-30T06:16:20;100417.25;;;18.97;97.60
2268;BME280;11052;43.338;25.502;2023-04-30T06:18:48;100407.94;;;19.32;85.88
2268;BME280;11052;43.338;25.502;2023-04-30T06:21:16;100411.44;;;19.19;86.69
2268;BME280;11052;43.338;25.502;2023-04-30T06:23:43;100416.31;;;19.25;84.47
2268;BME280;11052;43.338;25.502;2023-04-30T06:26:10;100414.38;;;18.73;83.41
2268;BME280;11052;43.338;25.502;2023-04-30T06:28:39;100406.38;;;18.46;91.23
2268;BME280;11052;43.338;25.502;2023-04-30T06:31:06;100416.38;;;18.11;90.40
2268;BME280;11052;43.338;25.502;2023-04-30T06:33:33;100413.03;;;18.38;88.36
2268;BME280;11052;43.338;25.502;2023-04-30T06:36:02;100411.75;;;18.73;86.20
2268;BME280;11052;43.338;25.502;2023-04-30T06:38:32;100408.03;;;19.04;81.40
2268;BME280;11052;43.338;25.502;2023-04-30T06:40:59;100408.06;;;18.90;85.67
2268;BME280;11052;43.338;25.502;2023-04-30T06:43:27;100403.53;;;19.06;86.67
2268;BME280;11052;43.338;25.502;2023-04-30T06:45:57;100405.09;;;19.09;81.48
2268;BME280;11052;43.338;25.502;2023-04-30T06:48:24;100402.63;;;18.79;86.22
2268;BME280;11052;43.338;25.502;2023-04-30T06:50:51;100407.69;;;18.96;84.92
2268;BME280;11052;43.338;25.502;2023-04-30T06:53:20;100402.22;;;19.80;89.88
2268;BME280;11052;43.338;25.502;2023-04-30T06:55:47;100400.38;;;20.20;86.90
2268;BME280;11052;43.338;25.502;2023-04-30T06:58:15;100404.34;;;20.00;77.51
2268;BME280;11052;43.338;25.502;2023-04-30T07:00:43;100402.88;;;19.96;79.28
2268;BME280;11052;43.338;25.502;2023-04-30T07:03:11;100404.72;;;20.46;80.29
2268;BME280;11052;43.338;25.502;2023-04-30T07:05:38;100406.81;;;20.67;74.21
2268;BME280;11052;43.338;25.502;2023-04-30T07:08:06;100411.22;;;20.79;70.06
2268;BME280;11052;43.338;25.502;2023-04-30T07:10:35;100406.59;;;20.32;79.19
2268;BME280;11052;43.338;25.502;2023-04-30T07:13:02;100402.72;;;20.50;74.67
2268;BME280;11052;43.338;25.502;2023-04-30T07:15:29;100404.38;;;20.76;77.03
2268;BME280;11052;43.338;25.502;2023-04-30T07:17:56;100407.94;;;21.12;74.39
2268;BME280;11052;43.338;25.502;2023-04-30T07:20:23;100410.13;;;21.18;71.95
2268;BME280;11052;43.338;25.502;2023-04-30T07:22:50;100405.78;;;21.53;77.53
2268;BME280;11052;43.338;25.502;2023-04-30T07:25:19;100416.50;;;21.63;71.45
2268;BME280;11052;43.338;25.502;2023-04-30T07:27:48;100408.91;;;21.93;73.05
2268;BME280;11052;43.338;25.502;2023-04-30T07:30:17;100403.03;;;22.36;70.36
2268;BME280;11052;43.338;25.502;2023-04-30T07:32:44;100412.75;;;22.24;66.57
2268;BME280;11052;43.338;25.502;2023-04-30T07:35:11;100408.63;;;22.09;66.96
2268;BME280;11052;43.338;25.502;2023-04-30T07:37:39;100402.28;;;22.68;64.80
2268;BME280;11052;43.338;25.502;2023-04-30T07:40:09;100404.59;;;22.83;62.07
2268;BME280;11052;43.338;25.502;2023-04-30T07:42:38;100410.47;;;22.65;63.58
2268;BME280;11052;43.338;25.502;2023-04-30T07:45:08;100408.66;;;22.20;63.00
2268;BME280;11052;43.338;25.502;2023-04-30T07:47:35;100411.53;;;22.17;62.18
2268;BME280;11052;43.338;25.502;2023-04-30T07:50:02;100412.41;;;22.51;62.60
2268;BME280;11052;43.338;25.502;2023-04-30T07:52:29;100417.09;;;22.93;65.68
2268;BME280;11052;43.338;25.502;2023-04-30T07:54:59;100409.97;;;23.15;62.87
2268;BME280;11052;43.338;25.502;2023-04-30T07:57:26;100412.72;;;23.14;57.39
2268;BME280;11052;43.338;25.502;2023-04-30T07:59:53;100409.34;;;23.23;58.28
2268;BME280;11052;43.338;25.502;2023-04-30T08:02:22;100410.03;;;23.36;60.43
2268;BME280;11052;43.338;25.502;2023-04-30T08:04:49;100407.88;;;23.62;63.73
2268;BME280;11052;43.338;25.502;2023-04-30T08:07:16;100411.84;;;23.89;61.58
2268;BME280;11052;43.338;25.502;2023-04-30T08:09:43;100407.91;;;23.51;58.96
2268;BME280;11052;43.338;25.502;2023-04-30T08:12:10;100410.28;;;23.65;54.29
2268;BME280;11052;43.338;25.502;2023-04-30T08:14:37;100410.16;;;23.67;55.19
2268;BME280;11052;43.338;25.502;2023-04-30T08:17:04;100410.78;;;23.59;52.84
2268;BME280;11052;43.338;25.502;2023-04-30T08:19:33;100404.41;;;23.50;54.11
2268;BME280;11052;43.338;25.502;2023-04-30T08:22:00;100398.66;;;23.45;54.30
2268;BME280;11052;43.338;25.502;2023-04-30T08:24:27;100395.44;;;23.74;56.47
2268;BME280;11052;43.338;25.502;2023-04-30T08:26:54;100389.28;;;23.41;50.98
2268;BME280;11052;43.338;25.502;2023-04-30T08:29:21;100394.75;;;23.93;55.76
2268;BME280;11052;43.338;25.502;2023-04-30T08:31:48;100389.06;;;23.76;54.00
2268;BME280;11052;43.338;25.502;2023-04-30T08:34:16;100391.13;;;23.94;55.05
2268;BME280;11052;43.338;25.502;2023-04-30T08:36:44;100394.59;;;24.36;63.28
2268;BME280;11052;43.338;25.502;2023-04-30T08:39:11;100394.91;;;24.82;60.14
2268;BME280;11052;43.338;25.502;2023-04-30T08:41:38;100391.78;;;24.68;56.04
2268;BME280;11052;43.338;25.502;2023-04-30T08:44:10;100390.13;;;24.67;54.57
2268;BME280;11052;43.338;25.502;2023-04-30T08:46:38;100392.06;;;24.34;58.09
2268;BME280;11052;43.338;25.502;2023-04-30T08:49:06;100396.28;;;24.16;58.61
2268;BME280;11052;43.338;25.502;2023-04-30T08:51:33;100390.25;;;24.35;57.14
2268;BME280;11052;43.338;25.502;2023-04-30T08:54:02;100399.75;;;24.37;51.46
2268;BME280;11052;43.338;25.502;2023-04-30T08:56:31;100390.72;;;23.77;48.04
2268;BME280;11052;43.338;25.502;2023-04-30T08:58:59;100395.63;;;23.61;54.10
2268;BME280;11052;43.338;25.502;2023-04-30T09:01:28;100389.28;;;23.09;52.77
2268;BME280;11052;43.338;25.502;2023-04-30T09:03:56;100388.94;;;23.03;56.65
2268;BME280;11052;43.338;25.502;2023-04-30T09:06:23;100385.28;;;23.26;60.16
2268;BME280;11052;43.338;25.502;2023-04-30T09:08:51;100373.19;;;23.01;56.37
2268;BME280;11052;43.338;25.502;2023-04-30T09:11:24;100374.41;;;22.75;55.79
2268;BME280;11052;43.338;25.502;2023-04-30T09:13:56;100361.81;;;22.67;57.52
2268;BME280;11052;43.338;25.502;2023-04-30T09:16:24;100366.69;;;23.05;58.40
2268;BME280;11052;43.338;25.502;2023-04-30T09:18:53;100359.53;;;23.60;59.86
2268;BME280;11052;43.338;25.502;2023-04-30T09:21:30;100359.22;;;23.74;57.07
2268;BME280;11052;43.338;25.502;2023-04-30T09:23:59;100364.56;;;23.63;55.68
2268;BME280;11052;43.338;25.502;2023-04-30T09:26:32;100353.78;;;24.17;59.83
2268;BME280;11052;43.338;25.502;2023-04-30T09:29:00;100361.97;;;24.14;58.72
2268;BME280;11052;43.338;25.502;2023-04-30T09:31:32;100353.69;;;24.29;57.00
2268;BME280;11052;43.338;25.502;2023-04-30T09:33:59;100353.22;;;24.54;58.12
2268;BME280;11052;43.338;25.502;2023-04-30T09:36:26;100349.13;;;24.40;54.21
2268;BME280;11052;43.338;25.502;2023-04-30T09:38:54;100340.09;;;24.12;52.87
2268;BME280;11052;43.338;25.502;2023-04-30T09:41:23;100341.72;;;24.34;52.24
2268;BME280;11052;43.338;25.502;2023-04-30T09:43:52;100340.25;;;24.21;51.02
2268;BME280;11052;43.338;25.502;2023-04-30T09:46:20;100335.66;;;23.92;51.31
2268;BME280;11052;43.338;25.502;2023-04-30T09:48:56;100337.47;;;24.52;55.40
2268;BME280;11052;43.338;25.502;2023-04-30T09:51:23;100332.81;;;24.35;55.97
2268;BME280;11052;43.338;25.502;2023-04-30T09:53:52;100337.53;;;24.32;54.84
2268;BME280;11052;43.338;25.502;2023-04-30T09:58:50;100327.81;;;24.42;60.33
2268;BME280;11052;43.338;25.502;2023-04-30T10:01:20;100321.41;;;24.44;56.69
2268;BME280;11052;43.338;25.502;2023-04-30T10:03:48;100331.31;;;24.52;58.42
2268;BME280;11052;43.338;25.502;2023-04-30T10:06:15;100321.13;;;24.47;57.72
2268;BME280;11052;43.338;25.502;2023-04-30T10:08:46;100319.91;;;24.61;53.40
2268;BME280;11052;43.338;25.502;2023-04-30T10:11:17;100311.91;;;24.42;57.87
2268;BME280;11052;43.338;25.502;2023-04-30T10:13:50;100316.19;;;24.33;58.39
2268;BME280;11052;43.338;25.502;2023-04-30T10:16:28;100309.72;;;24.57;59.31
2268;BME280;11052;43.338;25.502;2023-04-30T10:18:58;100308.91;;;24.66;58.94
2268;BME280;11052;43.338;25.502;2023-04-30T10:21:25;100311.72;;;24.74;57.12
2268;BME280;11052;43.338;25.502;2023-04-30T10:23:53;100309.91;;;24.34;57.64
2268;BME280;11052;43.338;25.502;2023-04-30T10:26:21;100303.97;;;24.51;57.33
2268;BME280;11052;43.338;25.502;2023-04-30T10:28:49;100304.97;;;24.60;57.98
2268;BME280;11052;43.338;25.502;2023-04-30T10:31:19;100310.22;;;24.91;60.04
2268;BME280;11052;43.338;25.502;2023-04-30T10:33:54;100304.13;;;25.09;57.46
2268;BME280;11052;43.338;25.502;2023-04-30T10:36:32;100302.72;;;25.05;54.80
2268;BME280;11052;43.338;25.502;2023-04-30T10:39:04;100301.31;;;25.11;55.20
2268;BME280;11052;43.338;25.502;2023-04-30T10:41:31;100299.75;;;24.89;52.29
2268;BME280;11052;43.338;25.502;2023-04-30T10:44:01;100298.41;;;25.04;59.35
2268;BME280;11052;43.338;25.502;2023-04-30T10:46:30;100293.66;;;25.08;53.97
2268;BME280;11052;43.338;25.502;2023-04-30T10:48:59;100293.00;;;24.66;52.84
2268;BME280;11052;43.338;25.502;2023-04-30T10:51:44;100300.00;;;24.76;56.43
2268;BME280;11052;43.338;25.502;2023-04-30T10:54:13;100291.34;;;24.84;53.11
2268;BME280;11052;43.338;25.502;2023-04-30T10:56:44;100291.63;;;24.71;55.46
2268;BME280;11052;43.338;25.502;2023-04-30T10:59:12;100288.97;;;24.71;52.92
2268;BME280;11052;43.338;25.502;2023-04-30T11:01:55;100288.34;;;24.98;57.25
2268;BME280;11052;43.338;25.502;2023-04-30T11:04:24;100287.63;;;25.15;55.91
2268;BME280;11052;43.338;25.502;2023-04-30T11:07:00;100280.63;;;25.24;52.35
2268;BME280;11052;43.338;25.502;2023-04-30T11:09:40;100276.00;;;25.45;53.91
2268;BME280;11052;43.338;25.502;2023-04-30T11:12:12;100285.78;;;25.16;50.17
2268;BME280;11052;43.338;25.502;2023-04-30T11:14:41;100278.41;;;25.20;52.38
2268;BME280;11052;43.338;25.502;2023-04-30T11:17:10;100278.69;;;24.97;51.03
2268;BME280;11052;43.338;25.502;2023-04-30T11:19:45;100276.06;;;24.97;50.68
2268;BME280;11052;43.338;25.502;2023-04-30T11:22:18;100276.47;;;25.02;53.83
2268;BME280;11052;43.338;25.502;2023-04-30T11:24:52;100278.22;;;24.73;51.69
2268;BME280;11052;43.338;25.502;2023-04-30T11:27:20;100276.06;;;25.07;53.09
2268;BME280;11052;43.338;25.502;2023-04-30T11:29:49;100278.28;;;25.02;52.21
2268;BME280;11052;43.338;25.502;2023-04-30T11:32:17;100278.78;;;24.86;51.13
2268;BME280;11052;43.338;25.502;2023-04-30T11:34:46;100274.88;;;24.71;51.03
2268;BME280;11052;43.338;25.502;2023-04-30T11:37:18;100269.63;;;24.40;48.13
2268;BME280;11052;43.338;25.502;2023-04-30T11:39:47;100260.94;;;24.88;51.66
2268;BME280;11052;43.338;25.502;2023-04-30T11:42:17;100262.06;;;24.86;48.54
2268;BME280;11052;43.338;25.502;2023-04-30T11:44:44;100257.78;;;24.44;49.42
2268;BME280;11052;43.338;25.502;2023-04-30T11:47:15;100255.94;;;24.35;49.11
2268;BME280;11052;43.338;25.502;2023-04-30T11:49:42;100258.34;;;24.48;50.91
2268;BME280;11052;43.338;25.502;2023-04-30T11:52:13;100260.59;;;24.52;51.17
2268;BME280;11052;43.338;25.502;2023-04-30T11:54:40;100254.72;;;24.49;49.79
2268;BME280;11052;43.338;25.502;2023-04-30T11:57:07;100251.44;;;24.76;50.19
2268;BME280;11052;43.338;25.502;2023-04-30T11:59:39;100248.22;;;24.82;50.94
2268;BME280;11052;43.338;25.502;2023-04-30T12:02:08;100248.97;;;25.03;49.24
2268;BME280;11052;43.338;25.502;2023-04-30T12:04:35;100250.19;;;24.90;44.13
2268;BME280;11052;43.338;25.502;2023-04-30T12:07:02;100241.91;;;24.54;45.84
2268;BME280;11052;43.338;25.502;2023-04-30T12:09:50;100242.38;;;24.88;50.42
2268;BME280;11052;43.338;25.502;2023-04-30T12:12:25;100239.72;;;25.27;49.71
2268;BME280;11052;43.338;25.502;2023-04-30T12:14:53;100242.22;;;25.19;50.34
2268;BME280;11052;43.338;25.502;2023-04-30T12:17:30;100239.72;;;25.27;48.90
2268;BME280;11052;43.338;25.502;2023-04-30T12:19:58;100230.34;;;25.23;47.29
2268;BME280;11052;43.338;25.502;2023-04-30T12:22:25;100233.84;;;24.84;48.34
2268;BME280;11052;43.338;25.502;2023-04-30T12:24:57;100226.72;;;24.75;49.23
2268;BME280;11052;43.338;25.502;2023-04-30T12:27:25;100225.44;;;24.50;49.46
2268;BME280;11052;43.338;25.502;2023-04-30T12:29:52;100220.13;;;24.50;49.35
2268;BME280;11052;43.338;25.502;2023-04-30T12:32:21;100219.31;;;24.60;49.92
2268;BME280;11052;43.338;25.502;2023-04-30T12:34:48;100223.09;;;24.57;47.28
2268;BME280;11052;43.338;25.502;2023-04-30T12:37:16;100218.34;;;24.90;48.54
2268;BME280;11052;43.338;25.502;2023-04-30T12:39:43;100216.28;;;25.03;49.17
2268;BME280;11052;43.338;25.502;2023-04-30T12:42:17;100211.97;;;25.11;48.78
2268;BME280;11052;43.338;25.502;2023-04-30T12:44:44;100216.09;;;25.24;50.86
2268;BME280;11052;43.338;25.502;2023-04-30T12:47:13;100218.22;;;25.20;47.35
2268;BME280;11052;43.338;25.502;2023-04-30T12:49:40;100205.22;;;25.27;46.37
2268;BME280;11052;43.338;25.502;2023-04-30T12:52:11;100210.09;;;25.22;48.16
2268;BME280;11052;43.338;25.502;2023-04-30T12:54:40;100206.34;;;24.95;46.71
2268;BME280;11052;43.338;25.502;2023-04-30T12:57:08;100197.69;;;24.74;44.66
2268;BME280;11052;43.338;25.502;2023-04-30T12:59:39;100191.97;;;24.69;46.08